createdAt,value
2018-08-09T00:04:47.085Z,60.00
2018-08-09T00:09:50.504Z,60.80
2018-08-09T00:14:53.941Z,59.80
2018-08-09T00:19:57.380Z,60.60
2018-08-09T00:25:00.828Z,60.50
2018-08-09T00:30:04.933Z,60.70
2018-08-09T00:35:08.336Z,61.00
2018-08-09T00:40:11.826Z,61.00
2018-08-09T00:45:15.064Z,61.60
2018-08-09T00:50:18.745Z,61.90
2018-08-09T00:55:22.153Z,62.20
2018-08-09T01:00:25.570Z,62.50
2018-08-09T01:05:29.064Z,62.50
2018-08-09T01:10:32.765Z,62.40
2018-08-09T01:15:36.026Z,62.70
2018-08-09T01:20:39.604Z,62.70
2018-08-09T01:25:43.066Z,63.30
2018-08-09T01:30:46.349Z,63.20
2018-08-09T01:35:50.666Z,63.00
2018-08-09T01:40:54.638Z,63.30
2018-08-09T01:45:58.940Z,63.10
2018-08-09T01:51:02.782Z,63.60
2018-08-09T01:56:06.385Z,63.60
2018-08-09T02:01:09.800Z,63.70
2018-08-09T02:06:14.087Z,63.90
2018-08-09T02:11:18.039Z,64.00
2018-08-09T02:16:21.576Z,64.10
2018-08-09T02:21:25.286Z,64.50
2018-08-09T02:26:29.028Z,64.30
2018-08-09T02:31:33.096Z,64.40
2018-08-09T02:36:37.337Z,64.50
2018-08-09T02:41:40.709Z,64.20
2018-08-09T02:46:44.632Z,64.50
2018-08-09T02:51:48.149Z,64.60
2018-08-09T02:56:51.599Z,65.00
2018-08-09T03:01:56.247Z,65.00
2018-08-09T03:06:59.578Z,65.00
2018-08-09T03:12:02.977Z,64.80
2018-08-09T03:17:06.375Z,65.00
2018-08-09T03:22:09.787Z,65.70
2018-08-09T03:27:13.186Z,65.60
2018-08-09T03:32:16.603Z,65.60
2018-08-09T03:37:19.994Z,65.70
2018-08-09T03:42:24.413Z,66.10
2018-08-09T03:47:27.743Z,66.20
2018-08-09T03:52:31.200Z,66.10
2018-08-09T03:57:34.698Z,66.50
2018-08-09T04:02:38.199Z,67.10
2018-08-09T04:07:41.660Z,66.80
2018-08-09T04:12:45.588Z,67.20
2018-08-09T04:17:49.009Z,67.10
2018-08-09T04:22:52.354Z,67.20
2018-08-09T04:27:55.793Z,67.40
2018-08-09T04:32:59.119Z,67.90
2018-08-09T04:38:03.170Z,67.90
2018-08-09T04:43:06.647Z,68.00
2018-08-09T04:48:10.595Z,68.60
2018-08-09T04:53:14.251Z,68.30
2018-08-09T04:58:17.545Z,68.50
2018-08-09T05:03:20.836Z,68.90
2018-08-09T05:08:24.892Z,69.10
2018-08-09T05:13:28.575Z,69.20
2018-08-09T05:18:31.889Z,69.60
2018-08-09T05:23:36.492Z,70.00
2018-08-09T05:28:39.857Z,69.60
2018-08-09T05:33:43.274Z,70.20
2018-08-09T05:38:47.040Z,70.30
2018-08-09T05:43:50.654Z,70.00
2018-08-09T05:48:54.115Z,70.20
2018-08-09T05:53:57.586Z,70.40
2018-08-09T05:59:00.909Z,70.60
2018-08-09T06:04:04.469Z,69.80
2018-08-09T06:09:09.973Z,69.50
2018-08-09T06:14:13.697Z,69.60
2018-08-09T06:19:17.398Z,68.80
2018-08-09T06:24:21.006Z,68.50
2018-08-09T06:29:24.478Z,68.00
2018-08-09T06:34:28.011Z,68.20
2018-08-09T06:39:31.695Z,66.50
2018-08-09T06:44:35.771Z,65.80
2018-08-09T06:49:39.848Z,66.50
2018-08-09T06:54:44.425Z,64.50
2018-08-09T06:59:48.327Z,63.80
2018-08-09T07:04:51.901Z,62.60
2018-08-09T07:09:55.423Z,62.00
2018-08-09T07:14:59.109Z,60.80
2018-08-09T07:20:02.600Z,60.00
2018-08-09T07:25:06.331Z,59.50
2018-08-09T07:30:11.905Z,58.80
2018-08-09T07:35:15.797Z,58.60
2018-08-09T07:40:20.257Z,58.10
2018-08-09T07:45:24.464Z,57.10
2018-08-09T07:50:28.126Z,56.60
2018-08-09T07:55:31.687Z,55.20
2018-08-09T08:00:36.016Z,55.30
2018-08-09T08:05:39.874Z,54.40
2018-08-09T08:10:43.347Z,53.70
2018-08-09T08:15:47.049Z,53.10
2018-08-09T08:20:50.655Z,52.90
2018-08-09T08:25:55.201Z,52.20
2018-08-09T08:31:05.367Z,51.70
2018-08-09T08:36:09.101Z,51.10
2018-08-09T08:41:12.651Z,50.40
2018-08-09T08:46:16.176Z,50.40
2018-08-09T08:51:20.038Z,49.90
2018-08-09T08:56:23.941Z,49.70
2018-08-09T09:01:27.438Z,49.70
2018-08-09T09:06:32.086Z,49.30
2018-08-09T09:11:35.669Z,49.40
2018-08-09T09:16:39.202Z,48.80
2018-08-09T09:21:42.711Z,48.60
2018-08-09T09:31:50.086Z,47.70
2018-08-09T09:36:53.614Z,47.60
2018-08-09T09:41:57.260Z,47.60
2018-08-09T09:47:00.617Z,47.80
2018-08-09T09:52:04.573Z,47.80
2018-08-09T09:57:08.249Z,47.20
2018-08-09T10:02:12.816Z,46.50
2018-08-09T10:07:16.294Z,45.80
2018-08-09T10:12:20.876Z,45.20
2018-08-09T10:17:24.521Z,45.50
2018-08-09T10:22:28.089Z,44.60
2018-08-09T10:27:32.555Z,45.20
2018-08-09T10:32:36.102Z,44.50
2018-08-09T10:37:39.575Z,44.50
2018-08-09T10:42:43.481Z,45.10
2018-08-09T10:47:48.819Z,44.10
2018-08-09T10:52:52.493Z,43.30
2018-08-09T10:57:56.258Z,42.30
2018-08-09T11:02:59.876Z,42.90
2018-08-09T11:08:04.045Z,42.40
2018-08-09T11:13:08.058Z,42.00
2018-08-09T11:18:12.002Z,41.10
2018-08-09T11:23:15.476Z,41.00
2018-08-09T11:28:19.402Z,40.90
2018-08-09T11:33:23.239Z,40.60
2018-08-09T11:38:27.041Z,39.50
2018-08-09T11:48:42.424Z,38.60
2018-08-09T11:53:45.749Z,37.90
2018-08-09T11:58:49.350Z,38.40
2018-08-09T12:03:53.008Z,38.30
2018-08-09T12:08:56.437Z,38.30
2018-08-09T12:14:00.356Z,37.20
2018-08-09T12:19:04.227Z,37.00
2018-08-09T12:24:07.805Z,35.40
2018-08-09T12:29:11.308Z,35.30
2018-08-09T12:34:14.774Z,35.60
2018-08-09T12:39:18.159Z,36.60
2018-08-09T12:44:21.768Z,36.50
2018-08-09T12:49:25.979Z,35.70
2018-08-09T12:54:29.559Z,36.00
2018-08-09T12:59:33.153Z,36.30
2018-08-09T13:04:37.151Z,36.20
2018-08-09T13:09:40.713Z,35.20
2018-08-09T13:14:44.187Z,34.60
2018-08-09T13:19:51.440Z,34.30
2018-08-09T13:24:54.992Z,35.30
2018-08-09T13:29:58.545Z,35.10
2018-08-09T13:35:02.114Z,34.80
2018-08-09T13:40:07.828Z,34.20
2018-08-09T13:45:14.702Z,33.60
2018-08-09T13:50:18.231Z,34.00
2018-08-09T13:55:21.707Z,33.40
2018-08-09T14:00:25.401Z,32.70
2018-08-09T14:05:29.388Z,33.70
2018-08-09T14:10:33.045Z,33.70
2018-08-09T14:15:36.682Z,33.80
2018-08-09T14:20:40.375Z,33.20
2018-08-09T14:25:44.163Z,33.60
2018-08-09T14:30:47.859Z,33.90
2018-08-09T14:35:51.670Z,34.00
2018-08-09T14:40:55.165Z,33.60
2018-08-09T14:45:58.561Z,33.80
2018-08-09T14:51:02.027Z,32.70
2018-08-09T14:56:06.392Z,33.40
2018-08-09T15:01:10.111Z,32.10
2018-08-09T15:06:13.887Z,31.70
2018-08-09T15:11:17.530Z,32.70
2018-08-09T15:16:21.975Z,31.70
2018-08-09T15:21:26.570Z,32.10
2018-08-09T15:26:38.328Z,32.90
2018-08-09T15:31:42.825Z,32.60
2018-08-09T15:37:05.985Z,31.30
2018-08-09T15:42:11.111Z,31.90
2018-08-09T15:47:15.138Z,31.80
2018-08-09T15:52:21.815Z,31.20
2018-08-09T15:57:26.809Z,30.30
2018-08-09T16:02:31.239Z,30.30
2018-08-09T16:07:35.758Z,29.80
2018-08-09T16:12:39.934Z,30.60
2018-08-09T16:17:43.821Z,31.40
2018-08-09T16:22:47.271Z,31.70
2018-08-09T16:27:50.645Z,31.30
2018-08-09T16:32:54.168Z,31.60
2018-08-09T16:37:57.350Z,31.70
2018-08-09T16:43:00.915Z,31.70
2018-08-09T16:48:04.442Z,31.90
2018-08-09T16:53:08.249Z,32.30
2018-08-09T16:58:12.119Z,33.00
2018-08-09T17:03:17.432Z,33.50
2018-08-09T17:08:24.554Z,33.90
2018-08-09T17:13:28.862Z,33.90
2018-08-09T17:18:32.561Z,34.30
2018-08-09T17:23:37.954Z,34.80
2018-08-09T17:28:43.039Z,34.70
2018-08-09T17:33:47.018Z,35.10
2018-08-09T17:38:52.903Z,34.90
2018-08-09T17:44:03.800Z,36.20
2018-08-09T17:49:13.586Z,36.70
2018-08-09T17:54:17.462Z,37.30
2018-08-09T17:59:22.570Z,37.70
2018-08-09T18:04:26.705Z,38.10
2018-08-09T18:09:31.279Z,38.10
2018-08-09T18:14:36.000Z,38.70
2018-08-09T18:19:41.931Z,39.30
2018-08-09T18:24:45.743Z,39.70
2018-08-09T18:29:49.755Z,40.40
2018-08-09T18:34:53.776Z,41.20
2018-08-09T18:39:58.218Z,41.80
2018-08-09T18:45:02.644Z,42.40
2018-08-09T18:50:14.865Z,42.50
2018-08-09T18:55:19.726Z,42.90
2018-08-09T19:00:26.757Z,43.60
2018-08-09T19:05:30.643Z,43.90
2018-08-09T19:10:34.931Z,44.40
2018-08-09T19:15:40.157Z,44.60
2018-08-09T19:20:45.258Z,44.70
2018-08-09T19:25:49.160Z,44.30
2018-08-09T19:30:52.904Z,44.30
2018-08-09T19:35:57.475Z,44.20
2018-08-09T19:41:01.175Z,44.70
2018-08-09T19:46:07.192Z,45.00
2018-08-09T19:51:11.545Z,45.30
2018-08-09T19:56:15.511Z,45.50
2018-08-09T20:01:20.655Z,45.80
2018-08-09T20:06:25.076Z,45.70
2018-08-09T20:11:28.975Z,45.60
2018-08-09T20:16:33.297Z,45.70
2018-08-09T20:21:38.396Z,45.80
2018-08-09T20:26:42.983Z,45.90
2018-08-09T20:31:47.373Z,46.00
2018-08-09T20:36:51.998Z,46.60
2018-08-09T20:41:57.857Z,46.90
2018-08-09T20:47:03.237Z,46.60
2018-08-09T20:52:07.175Z,46.20
2018-08-09T20:57:12.191Z,46.30
2018-08-09T21:02:16.107Z,46.40
2018-08-09T21:07:20.025Z,46.20
2018-08-09T21:12:23.994Z,46.50
2018-08-09T21:17:29.851Z,46.60
2018-08-09T21:22:34.379Z,46.80
2018-08-09T21:27:39.765Z,47.10
2018-08-09T21:32:45.204Z,47.50
2018-08-09T21:37:50.343Z,47.60
2018-08-09T21:42:54.659Z,47.70
2018-08-09T21:47:59.058Z,48.10
2018-08-09T21:53:03.510Z,48.40
2018-08-09T21:58:09.188Z,48.70
2018-08-09T22:03:13.339Z,48.80
2018-08-09T22:08:24.790Z,49.60
2018-08-09T22:13:34.733Z,50.80
2018-08-09T22:18:44.111Z,51.90
2018-08-09T22:23:49.094Z,53.60
2018-08-09T22:28:52.874Z,53.80
2018-08-09T22:33:58.299Z,54.40
2018-08-09T22:39:02.438Z,54.90
2018-08-09T22:44:06.655Z,55.00
2018-08-09T22:49:11.318Z,54.70
2018-08-09T22:54:15.678Z,54.30
2018-08-09T22:59:20.824Z,54.20
2018-08-09T23:04:25.200Z,54.20
2018-08-09T23:09:30.054Z,54.80
2018-08-09T23:14:34.232Z,55.80
2018-08-09T23:19:39.298Z,57.10
2018-08-09T23:24:43.623Z,58.20
2018-08-09T23:29:47.809Z,58.10
2018-08-09T23:34:53.258Z,58.20
2018-08-09T23:39:58.909Z,58.80
2018-08-09T23:45:03.857Z,59.00
2018-08-09T23:50:10.435Z,59.40
2018-08-09T23:55:22.266Z,60.00
